createdAt,value
2017-08-07T00:01:03.062Z,5.60
2017-08-07T00:03:32.255Z,5.93
2017-08-07T00:06:00.796Z,6.00
2017-08-07T00:08:28.330Z,6.45
2017-08-07T00:11:00.039Z,5.03
2017-08-07T00:13:28.430Z,5.72
2017-08-07T00:15:56.539Z,5.45
2017-08-07T00:18:24.606Z,5.30
2017-08-07T00:20:52.252Z,4.80
2017-08-07T00:23:20.136Z,5.55
2017-08-07T00:25:48.207Z,6.40
2017-08-07T00:28:20.583Z,6.22
2017-08-07T00:30:48.344Z,4.95
2017-08-07T00:33:16.416Z,6.03
2017-08-07T00:35:44.351Z,6.55
2017-08-07T00:38:12.576Z,6.85
2017-08-07T00:40:40.322Z,6.47
2017-08-07T00:43:08.253Z,5.40
2017-08-07T00:45:36.158Z,5.80
2017-08-07T00:48:03.923Z,6.45
2017-08-07T00:50:31.993Z,5.60
2017-08-07T00:53:00.315Z,4.93
2017-08-07T00:55:28.994Z,5.20
2017-08-07T00:58:00.143Z,7.75
2017-08-07T01:00:27.965Z,6.00
2017-08-07T01:02:56.036Z,5.12
2017-08-07T01:05:24.416Z,6.50
2017-08-07T01:07:52.487Z,5.95
2017-08-07T01:10:23.854Z,5.80
2017-08-07T01:12:52.902Z,6.12
2017-08-07T01:15:20.949Z,5.90
2017-08-07T01:17:49.691Z,5.40
2017-08-07T01:20:17.811Z,5.62
2017-08-07T01:22:46.137Z,6.43
2017-08-07T01:25:18.456Z,5.20
2017-08-07T01:27:46.275Z,6.00
2017-08-07T01:30:14.271Z,6.93
2017-08-07T01:32:41.959Z,7.00
2017-08-07T01:35:09.480Z,5.87
2017-08-07T01:37:36.992Z,6.47
2017-08-07T01:40:08.988Z,6.80
2017-08-07T01:42:36.491Z,5.93
2017-08-07T01:45:03.988Z,5.80
2017-08-07T01:47:31.666Z,7.25
2017-08-07T01:49:59.172Z,7.18
2017-08-07T01:52:27.477Z,5.40
2017-08-07T01:54:54.974Z,4.75
2017-08-07T01:57:25.787Z,6.62
2017-08-07T02:00:00.713Z,6.47
2017-08-07T02:02:28.225Z,4.97
2017-08-07T02:04:55.828Z,5.20
2017-08-07T02:07:23.339Z,4.68
2017-08-07T02:09:50.869Z,4.60
2017-08-07T02:12:18.791Z,5.20
2017-08-07T02:14:46.333Z,4.93
2017-08-07T02:17:13.866Z,4.57
2017-08-07T02:19:41.473Z,4.55
2017-08-07T02:22:09.076Z,4.57
2017-08-07T02:24:36.589Z,4.32
2017-08-07T02:27:07.914Z,4.60
2017-08-07T02:29:38.707Z,4.47
2017-08-07T02:32:06.211Z,5.40
2017-08-07T02:34:34.542Z,5.53
2017-08-07T02:37:02.075Z,5.15
2017-08-07T02:39:29.581Z,6.10
2017-08-07T02:42:01.231Z,5.90
2017-08-07T02:44:28.743Z,5.32
2017-08-07T02:46:57.035Z,5.25
2017-08-07T02:49:24.804Z,5.12
2017-08-07T02:51:52.317Z,5.82
2017-08-07T02:54:19.903Z,5.28
2017-08-07T02:56:47.483Z,6.18
2017-08-07T02:59:18.736Z,7.25
2017-08-07T03:01:46.383Z,7.00
2017-08-07T03:04:13.894Z,7.43
2017-08-07T03:06:41.406Z,6.85
2017-08-07T03:09:08.938Z,6.95
2017-08-07T03:11:44.343Z,6.68
2017-08-07T03:14:11.843Z,6.47
2017-08-07T03:16:42.496Z,6.30
2017-08-07T03:19:10.005Z,6.90
2017-08-07T03:21:37.747Z,7.37
2017-08-07T03:24:05.392Z,6.80
2017-08-07T03:26:36.883Z,6.72
2017-08-07T03:29:09.000Z,5.45
2017-08-07T03:31:36.499Z,5.82
2017-08-07T03:34:04.003Z,5.32
2017-08-07T03:36:36.016Z,4.50
2017-08-07T03:39:03.559Z,5.53
2017-08-07T03:41:31.195Z,5.75
2017-08-07T03:43:58.703Z,6.65
2017-08-07T03:46:26.260Z,6.62
2017-08-07T03:48:53.755Z,5.65
2017-08-07T03:51:21.252Z,5.62
2017-08-07T03:53:48.783Z,5.85
2017-08-07T03:56:16.495Z,4.93
2017-08-07T03:58:47.390Z,5.05
2017-08-07T04:01:14.900Z,4.28
2017-08-07T04:03:42.437Z,7.35
2017-08-07T04:06:09.967Z,6.50
2017-08-07T04:08:37.557Z,5.87
2017-08-07T04:11:05.302Z,8.07
2017-08-07T04:13:32.803Z,7.10
2017-08-07T04:16:00.297Z,5.30
2017-08-07T04:18:27.844Z,6.10
2017-08-07T04:20:55.584Z,6.82
2017-08-07T04:23:23.108Z,6.20
2017-08-07T04:25:50.930Z,6.03
2017-08-07T04:28:18.450Z,6.50
2017-08-07T04:30:45.987Z,6.05
2017-08-07T04:33:13.488Z,6.72
2017-08-07T04:35:41.019Z,7.82
2017-08-07T04:38:08.558Z,5.78
2017-08-07T04:40:36.104Z,6.37
2017-08-07T04:43:03.720Z,7.10
2017-08-07T04:45:31.237Z,6.10
2017-08-07T04:48:02.722Z,5.30
2017-08-07T04:50:30.316Z,6.37
2017-08-07T04:52:57.895Z,6.45
2017-08-07T04:55:25.436Z,5.12
2017-08-07T04:57:53.149Z,4.65
2017-08-07T05:00:21.204Z,5.40
2017-08-07T05:02:48.899Z,4.77
2017-08-07T05:05:16.435Z,4.00
2017-08-07T05:07:44.198Z,4.47
2017-08-07T05:10:11.935Z,5.90
2017-08-07T05:12:39.453Z,5.17
2017-08-07T05:15:15.516Z,5.07
2017-08-07T05:17:43.788Z,5.23
2017-08-07T05:20:11.312Z,4.70
2017-08-07T05:22:38.866Z,5.10
2017-08-07T05:25:06.485Z,5.10
2017-08-07T05:27:33.991Z,5.37
2017-08-07T05:30:05.107Z,5.37
2017-08-07T05:32:32.634Z,5.53
2017-08-07T05:35:01.199Z,5.80
2017-08-07T05:37:32.320Z,5.77
2017-08-07T05:39:59.932Z,5.67
2017-08-07T05:42:28.791Z,7.10
2017-08-07T05:44:59.375Z,5.70
2017-08-07T05:47:26.879Z,5.20
2017-08-07T05:49:58.928Z,7.13
2017-08-07T05:52:26.422Z,7.27
2017-08-07T05:54:54.731Z,5.97
2017-08-07T05:57:22.307Z,6.60
2017-08-07T05:59:49.821Z,6.00
2017-08-07T06:02:17.364Z,6.30
2017-08-07T06:04:44.874Z,5.50
2017-08-07T06:07:12.386Z,6.60
2017-08-07T06:09:40.714Z,8.00
2017-08-07T06:12:08.420Z,6.12
2017-08-07T06:14:39.313Z,6.15
2017-08-07T06:17:06.819Z,6.43
2017-08-07T06:19:35.099Z,7.28
2017-08-07T06:22:06.367Z,7.03
2017-08-07T06:24:33.939Z,7.18
2017-08-07T06:27:01.451Z,7.50
2017-08-07T06:29:32.647Z,8.27
2017-08-07T06:32:00.416Z,7.95
2017-08-07T06:34:35.793Z,8.88
2017-08-07T06:37:03.433Z,7.47
2017-08-07T06:39:31.008Z,8.80
2017-08-07T06:41:58.517Z,8.73
2017-08-07T06:44:26.343Z,9.30
2017-08-07T06:46:57.565Z,8.95
2017-08-07T06:49:25.208Z,9.95
2017-08-07T06:51:52.722Z,10.07
2017-08-07T06:54:20.252Z,10.30
2017-08-07T06:56:47.836Z,10.20
2017-08-07T06:59:15.465Z,9.98
2017-08-07T07:01:42.971Z,10.27
2017-08-07T07:04:14.263Z,11.35
2017-08-07T07:06:41.767Z,11.98
2017-08-07T07:09:09.308Z,10.65
2017-08-07T07:11:36.859Z,13.60
2017-08-07T07:14:04.363Z,13.35
2017-08-07T07:16:35.236Z,13.30
2017-08-07T07:19:06.751Z,14.27
2017-08-07T07:21:34.288Z,14.95
2017-08-07T07:24:01.799Z,14.13
2017-08-07T07:26:29.351Z,13.70
2017-08-07T07:28:57.036Z,14.80
2017-08-07T07:31:24.545Z,14.43
2017-08-07T07:33:56.645Z,13.95
2017-08-07T07:36:24.153Z,13.70
2017-08-07T07:38:51.667Z,14.85
2017-08-07T07:41:23.923Z,12.93
2017-08-07T07:43:51.689Z,13.93
2017-08-07T07:46:23.140Z,12.98
2017-08-07T07:48:50.899Z,12.45
2017-08-07T07:51:18.419Z,12.02
2017-08-07T07:53:46.745Z,12.02
2017-08-07T07:56:14.271Z,12.52
2017-08-07T07:58:41.873Z,12.27
2017-08-07T08:01:09.406Z,12.52
2017-08-07T08:03:44.298Z,13.57
2017-08-07T08:06:11.986Z,13.30
2017-08-07T08:08:39.496Z,13.85
2017-08-07T08:11:07.024Z,12.20
2017-08-07T08:13:34.575Z,12.13
2017-08-07T08:16:02.089Z,11.73
2017-08-07T08:18:33.403Z,11.93
2017-08-07T08:21:00.933Z,10.95
2017-08-07T08:23:32.857Z,11.20
2017-08-07T08:26:00.359Z,10.35
2017-08-07T08:28:27.940Z,9.35
2017-08-07T08:30:55.496Z,10.90
2017-08-07T08:33:23.012Z,11.07
2017-08-07T08:35:51.279Z,9.98
2017-08-07T08:38:23.411Z,7.75
2017-08-07T08:40:50.915Z,9.15
2017-08-07T08:43:19.232Z,9.10
2017-08-07T08:45:46.739Z,8.77
2017-08-07T08:48:14.701Z,7.65
2017-08-07T08:50:45.296Z,8.45
2017-08-07T08:53:13.106Z,7.55
2017-08-07T08:55:40.867Z,8.73
2017-08-07T08:58:09.188Z,7.55
2017-08-07T09:00:36.704Z,8.38
2017-08-07T09:03:15.382Z,7.03
2017-08-07T09:05:42.933Z,8.85
2017-08-07T09:08:10.516Z,8.50
2017-08-07T09:10:38.281Z,7.03
2017-08-07T09:13:06.012Z,7.62
2017-08-07T09:15:33.651Z,8.00
2017-08-07T09:18:01.168Z,7.10
2017-08-07T09:20:32.182Z,6.53
2017-08-07T09:22:59.741Z,6.18
2017-08-07T09:25:27.307Z,6.45
2017-08-07T09:27:54.939Z,6.57
2017-08-07T09:30:22.628Z,4.82
2017-08-07T09:33:00.429Z,5.37
2017-08-07T09:35:31.059Z,5.15
2017-08-07T09:37:58.624Z,5.55
2017-08-07T09:40:26.355Z,5.70
2017-08-07T09:42:54.044Z,5.10
2017-08-07T09:45:21.648Z,5.27
2017-08-07T09:47:49.146Z,5.23
2017-08-07T09:50:20.817Z,5.00
2017-08-07T09:52:48.889Z,5.07
2017-08-07T09:55:16.420Z,5.70
2017-08-07T09:57:44.055Z,5.63
2017-08-07T10:00:11.579Z,3.70
2017-08-07T10:02:39.072Z,5.00
2017-08-07T10:05:10.453Z,4.50
2017-08-07T10:07:38.003Z,3.80
2017-08-07T10:10:05.517Z,3.83
2017-08-07T10:12:33.015Z,3.97
2017-08-07T10:15:00.555Z,3.20
2017-08-07T10:17:28.170Z,3.73
2017-08-07T10:19:58.943Z,5.10
2017-08-07T10:22:30.353Z,2.70
2017-08-07T10:25:00.871Z,3.30
2017-08-07T10:27:28.403Z,3.90
2017-08-07T10:29:56.663Z,3.53
2017-08-07T10:32:25.127Z,3.70
2017-08-07T10:34:55.832Z,4.50
2017-08-07T10:37:23.327Z,4.20
2017-08-07T10:39:50.843Z,3.80
2017-08-07T10:42:18.407Z,3.23
2017-08-07T10:44:45.931Z,3.60
2017-08-07T10:47:13.448Z,3.90
2017-08-07T10:49:44.047Z,3.43
2017-08-07T10:52:12.467Z,3.40
2017-08-07T10:54:40.451Z,4.40
2017-08-07T10:57:08.001Z,3.37
2017-08-07T10:59:35.520Z,2.80
2017-08-07T11:02:03.056Z,3.60
2017-08-07T11:04:34.007Z,4.47
2017-08-07T11:07:11.680Z,3.67
2017-08-07T11:09:39.995Z,2.87
2017-08-07T11:12:07.563Z,4.87
2017-08-07T11:14:35.149Z,3.27
2017-08-07T11:17:02.655Z,4.13
2017-08-07T11:19:34.725Z,3.10
2017-08-07T11:22:02.240Z,3.27
2017-08-07T11:24:30.572Z,3.00
2017-08-07T11:26:58.071Z,3.00
2017-08-07T11:29:25.599Z,2.60
2017-08-07T11:31:53.112Z,2.73
2017-08-07T11:34:20.723Z,3.77
2017-08-07T11:36:48.466Z,2.60
2017-08-07T11:39:18.993Z,2.57
2017-08-07T11:41:46.999Z,2.53
2017-08-07T11:44:14.501Z,2.77
2017-08-07T11:46:42.033Z,3.67
2017-08-07T11:49:10.351Z,2.70
2017-08-07T11:51:40.999Z,2.37
2017-08-07T11:54:08.580Z,3.10
2017-08-07T11:56:36.156Z,2.37
2017-08-07T11:59:03.872Z,3.07
2017-08-07T12:01:31.382Z,3.07
2017-08-07T12:03:59.702Z,3.07
2017-08-07T12:06:27.476Z,3.30
2017-08-07T12:09:06.605Z,3.33
2017-08-07T12:11:34.099Z,3.37
2017-08-07T12:14:01.594Z,6.67
2017-08-07T12:16:29.282Z,3.23
2017-08-07T12:18:57.059Z,2.90
2017-08-07T12:21:28.449Z,3.23
2017-08-07T12:23:55.967Z,2.77
2017-08-07T12:26:23.739Z,2.57
2017-08-07T12:28:51.243Z,3.63
2017-08-07T12:31:19.565Z,2.77
2017-08-07T12:33:47.567Z,4.70
2017-08-07T12:36:19.202Z,2.77
2017-08-07T12:38:46.704Z,3.30
2017-08-07T12:41:17.766Z,3.30
2017-08-07T12:43:45.372Z,2.67
2017-08-07T12:46:12.911Z,2.83
2017-08-07T12:48:44.105Z,3.10
2017-08-07T12:51:12.526Z,2.40
2017-08-07T12:53:44.190Z,2.83
2017-08-07T12:56:11.705Z,2.93
2017-08-07T12:58:40.030Z,3.20
2017-08-07T13:01:07.555Z,3.07
2017-08-07T13:03:35.228Z,3.03
2017-08-07T13:06:05.887Z,3.10
2017-08-07T13:08:33.427Z,2.87
2017-08-07T13:11:01.846Z,2.50
2017-08-07T13:13:29.387Z,3.33
2017-08-07T13:15:56.913Z,2.80
2017-08-07T13:18:24.587Z,2.70
2017-08-07T13:20:52.120Z,3.50
2017-08-07T13:23:19.626Z,2.70
2017-08-07T13:25:51.576Z,2.63
2017-08-07T13:28:19.084Z,2.40
2017-08-07T13:30:47.706Z,3.13
2017-08-07T13:33:15.239Z,3.27
2017-08-07T13:35:42.740Z,2.53
2017-08-07T13:38:14.260Z,2.50
2017-08-07T13:40:42.688Z,2.67
2017-08-07T13:43:10.230Z,2.50
2017-08-07T13:45:37.745Z,2.90
2017-08-07T13:48:05.540Z,2.70
2017-08-07T13:50:33.075Z,3.17
2017-08-07T13:53:00.904Z,2.07
2017-08-07T13:55:28.542Z,3.13
2017-08-07T13:57:56.052Z,2.83
2017-08-07T14:00:23.642Z,2.93
2017-08-07T14:02:51.486Z,2.90
2017-08-07T14:05:19.151Z,2.60
2017-08-07T14:07:46.667Z,2.50
2017-08-07T14:10:18.375Z,2.73
2017-08-07T14:12:46.139Z,2.33
2017-08-07T14:15:13.650Z,2.20
2017-08-07T14:17:41.280Z,2.70
2017-08-07T14:20:08.828Z,2.80
2017-08-07T14:22:41.219Z,2.70
2017-08-07T14:25:08.748Z,2.50
2017-08-07T14:27:39.490Z,2.30
2017-08-07T14:30:07.049Z,3.17
2017-08-07T14:32:34.732Z,2.60
2017-08-07T14:35:02.274Z,3.40
2017-08-07T14:37:29.779Z,2.90
2017-08-07T14:40:00.771Z,2.43
2017-08-07T14:42:28.332Z,2.73
2017-08-07T14:44:59.927Z,3.10
2017-08-07T14:47:27.749Z,3.13
2017-08-07T14:49:58.491Z,2.70
2017-08-07T14:52:25.988Z,3.00
2017-08-07T14:54:56.921Z,3.97
2017-08-07T14:57:24.452Z,3.30
2017-08-07T14:59:52.000Z,2.83
2017-08-07T15:02:19.501Z,3.30
2017-08-07T15:04:47.000Z,3.13
2017-08-07T15:07:14.778Z,2.90
2017-08-07T15:09:49.624Z,3.27
2017-08-07T15:12:17.383Z,3.10
2017-08-07T15:14:45.036Z,3.17
2017-08-07T15:17:12.623Z,3.20
2017-08-07T15:19:40.343Z,3.60
2017-08-07T15:22:08.084Z,3.10
2017-08-07T15:24:35.682Z,3.57
2017-08-07T15:27:03.396Z,4.17
2017-08-07T15:29:36.052Z,2.70
2017-08-07T15:32:03.551Z,3.40
2017-08-07T15:34:31.148Z,2.60
2017-08-07T15:36:59.644Z,3.23
2017-08-07T15:39:31.063Z,3.57
2017-08-07T15:42:05.579Z,3.20
2017-08-07T15:44:36.738Z,3.60
2017-08-07T15:47:04.242Z,2.80
2017-08-07T15:49:31.746Z,3.20
2017-08-07T15:51:59.359Z,2.90
2017-08-07T15:54:38.245Z,2.67
2017-08-07T15:57:05.916Z,3.47
2017-08-07T15:59:33.411Z,3.00
2017-08-07T16:02:00.964Z,3.43
2017-08-07T16:04:28.467Z,3.87
2017-08-07T16:06:56.145Z,3.43
2017-08-07T16:09:23.684Z,3.53
2017-08-07T16:11:51.352Z,3.43
2017-08-07T16:14:22.917Z,3.43
2017-08-07T16:16:50.435Z,3.27
2017-08-07T16:19:18.278Z,3.20
2017-08-07T16:21:45.834Z,2.70
2017-08-07T16:24:13.355Z,3.33
2017-08-07T16:26:40.880Z,2.83
2017-08-07T16:29:11.346Z,3.30
2017-08-07T16:31:42.745Z,3.30
2017-08-07T16:34:11.060Z,3.17
2017-08-07T16:36:45.598Z,3.27
2017-08-07T16:39:13.302Z,3.50
2017-08-07T16:41:40.831Z,3.43
2017-08-07T16:44:12.868Z,3.30
2017-08-07T16:46:43.533Z,4.03
2017-08-07T16:49:15.215Z,3.40
2017-08-07T16:51:43.497Z,3.60
2017-08-07T16:54:11.022Z,4.60
2017-08-07T16:56:38.725Z,2.50
2017-08-07T16:59:06.657Z,3.33
2017-08-07T17:01:34.204Z,3.73
2017-08-07T17:04:01.699Z,3.30
2017-08-07T17:06:29.209Z,2.90
2017-08-07T17:08:56.772Z,3.50
2017-08-07T17:11:24.311Z,3.43
2017-08-07T17:13:52.151Z,2.83
2017-08-07T17:16:19.696Z,3.00
2017-08-07T17:18:47.670Z,2.70
2017-08-07T17:21:15.195Z,3.60
2017-08-07T17:23:42.703Z,2.70
2017-08-07T17:26:13.947Z,2.30
2017-08-07T17:28:41.448Z,2.47
2017-08-07T17:31:13.298Z,3.00
2017-08-07T17:33:40.985Z,2.50
2017-08-07T17:36:11.667Z,2.70
2017-08-07T17:38:39.606Z,3.20
2017-08-07T17:41:07.103Z,3.23
2017-08-07T17:43:34.652Z,3.30
2017-08-07T17:46:02.159Z,4.70
2017-08-07T17:48:29.676Z,3.40
2017-08-07T17:50:57.203Z,3.33
2017-08-07T17:53:25.011Z,3.27
2017-08-07T17:55:56.473Z,3.50
2017-08-07T17:58:24.148Z,2.70
2017-08-07T18:00:51.987Z,2.40
2017-08-07T18:03:19.523Z,4.13
2017-08-07T18:05:47.818Z,3.70
2017-08-07T18:08:15.339Z,4.90
2017-08-07T18:10:43.025Z,5.53
2017-08-07T18:13:11.367Z,3.27
2017-08-07T18:15:38.874Z,2.97
2017-08-07T18:18:10.956Z,4.10
2017-08-07T18:20:38.460Z,3.10
2017-08-07T18:23:06.475Z,5.30
2017-08-07T18:25:34.004Z,5.27
2017-08-07T18:28:02.267Z,4.63
2017-08-07T18:30:37.194Z,4.43
2017-08-07T18:33:04.758Z,4.70
2017-08-07T18:35:32.270Z,3.50
2017-08-07T18:37:59.825Z,3.83
2017-08-07T18:40:27.332Z,3.53
2017-08-07T18:42:58.779Z,3.60
2017-08-07T18:45:26.276Z,3.67
2017-08-07T18:47:53.778Z,4.70
2017-08-07T18:50:22.735Z,8.20
2017-08-07T18:52:50.355Z,4.03
2017-08-07T18:55:17.907Z,3.50
2017-08-07T18:57:45.407Z,3.97
2017-08-07T19:00:12.899Z,3.37
2017-08-07T19:02:40.476Z,3.53
2017-08-07T19:05:08.295Z,5.37
2017-08-07T19:07:35.820Z,3.80
2017-08-07T19:10:04.083Z,5.10
2017-08-07T19:12:34.412Z,4.57
2017-08-07T19:15:05.452Z,3.40
2017-08-07T19:17:32.995Z,3.63
2017-08-07T19:20:00.532Z,5.10
2017-08-07T19:22:28.085Z,5.60
2017-08-07T19:24:55.625Z,5.50
2017-08-07T19:27:23.132Z,4.80
2017-08-07T19:29:54.860Z,3.57
2017-08-07T19:32:25.955Z,5.27
2017-08-07T19:34:53.544Z,4.67
2017-08-07T19:37:21.202Z,3.50
2017-08-07T19:39:48.976Z,4.87
2017-08-07T19:42:16.515Z,4.13
2017-08-07T19:44:47.292Z,4.20
2017-08-07T19:47:15.030Z,4.20
2017-08-07T19:49:42.567Z,3.93
2017-08-07T19:52:10.851Z,4.50
2017-08-07T19:54:38.388Z,4.60
2017-08-07T19:57:06.715Z,3.53
2017-08-07T19:59:38.791Z,4.00
2017-08-07T20:02:06.292Z,4.90
2017-08-07T20:04:34.592Z,4.30
2017-08-07T20:07:02.140Z,5.10
2017-08-07T20:09:29.648Z,4.45
2017-08-07T20:11:57.498Z,4.47
2017-08-07T20:14:25.077Z,5.00
2017-08-07T20:16:52.724Z,4.60
2017-08-07T20:19:24.890Z,7.05
2017-08-07T20:21:52.647Z,9.45
2017-08-07T20:24:20.212Z,6.10
2017-08-07T20:26:47.719Z,5.40
2017-08-07T20:29:19.628Z,6.18
2017-08-07T20:31:47.152Z,5.30
2017-08-07T20:34:18.233Z,6.20
2017-08-07T20:36:49.426Z,17.60
2017-08-07T20:39:18.031Z,9.63
2017-08-07T20:41:45.559Z,8.18
2017-08-07T20:44:13.077Z,6.93
2017-08-07T20:46:44.731Z,7.65
2017-08-07T20:49:14.873Z,5.60
2017-08-07T20:51:43.391Z,4.78
2017-08-07T20:54:10.928Z,5.10
2017-08-07T20:56:38.460Z,4.90
2017-08-07T20:59:05.973Z,4.90
2017-08-07T21:01:36.523Z,5.28
2017-08-07T21:04:04.044Z,5.05
2017-08-07T21:06:33.296Z,5.45
2017-08-07T21:09:00.815Z,5.70
2017-08-07T21:11:28.461Z,5.43
2017-08-07T21:13:56.390Z,5.87
2017-08-07T21:16:27.129Z,5.60
2017-08-07T21:18:54.647Z,5.53
2017-08-07T21:21:22.272Z,5.55
2017-08-07T21:23:49.869Z,5.40
2017-08-07T21:26:17.372Z,5.97
2017-08-07T21:28:45.329Z,5.12
2017-08-07T21:31:16.775Z,5.60
2017-08-07T21:33:44.289Z,5.35
2017-08-07T21:36:16.911Z,6.25
2017-08-07T21:38:44.417Z,6.85
2017-08-07T21:41:12.719Z,5.68
2017-08-07T21:43:40.249Z,7.00
2017-08-07T21:46:08.044Z,7.72
2017-08-07T21:48:39.479Z,6.47
2017-08-07T21:51:07.780Z,7.00
2017-08-07T21:53:35.327Z,6.97
2017-08-07T21:56:03.121Z,7.00
2017-08-07T21:58:30.677Z,7.10
2017-08-07T22:00:58.180Z,6.97
2017-08-07T22:03:25.683Z,7.50
2017-08-07T22:05:53.216Z,6.90
2017-08-07T22:08:21.505Z,6.85
2017-08-07T22:10:49.089Z,6.97
2017-08-07T22:13:17.102Z,7.10
2017-08-07T22:15:44.811Z,6.57
2017-08-07T22:18:15.445Z,7.60
2017-08-07T22:20:42.976Z,7.50
2017-08-07T22:23:14.902Z,7.72
2017-08-07T22:25:42.448Z,7.57
2017-08-07T22:28:09.973Z,6.82
2017-08-07T22:30:37.812Z,7.75
2017-08-07T22:33:09.927Z,7.50
2017-08-07T22:35:37.435Z,6.30
2017-08-07T22:38:09.140Z,6.97
2017-08-07T22:40:36.675Z,7.03
2017-08-07T22:43:04.359Z,6.90
2017-08-07T22:45:31.891Z,8.00
2017-08-07T22:48:02.360Z,7.00
2017-08-07T22:50:29.878Z,7.55
2017-08-07T22:52:57.571Z,6.87
2017-08-07T22:55:25.354Z,7.90
2017-08-07T22:57:53.093Z,7.37
2017-08-07T23:00:20.596Z,7.10
2017-08-07T23:02:55.079Z,8.20
2017-08-07T23:05:22.871Z,7.53
2017-08-07T23:07:50.375Z,8.20
2017-08-07T23:10:17.951Z,7.47
2017-08-07T23:12:46.068Z,7.43
2017-08-07T23:15:13.587Z,7.65
2017-08-07T23:17:45.644Z,6.57
2017-08-07T23:20:16.186Z,8.15
2017-08-07T23:22:47.628Z,7.45
2017-08-07T23:25:15.127Z,7.75
2017-08-07T23:27:42.663Z,7.37
2017-08-07T23:30:10.161Z,7.75
2017-08-07T23:32:41.792Z,6.70
2017-08-07T23:35:12.290Z,8.07
2017-08-07T23:37:39.826Z,8.13
2017-08-07T23:40:07.447Z,7.87
2017-08-07T23:42:34.960Z,7.10
2017-08-07T23:45:02.480Z,6.95
2017-08-07T23:47:33.061Z,7.05
2017-08-07T23:50:00.722Z,7.85
2017-08-07T23:52:31.235Z,8.98
2017-08-07T23:54:58.743Z,10.13
2017-08-07T23:57:26.580Z,7.78
2017-08-07T23:59:54.241Z,8.07
